createdAt,value
2022-09-28T00:01:02.190Z,99.90
2022-09-28T00:03:30.107Z,99.90
2022-09-28T00:06:03.195Z,99.90
2022-09-28T00:08:31.133Z,99.90
2022-09-28T00:11:00.373Z,99.90
2022-09-28T00:13:29.465Z,99.90
2022-09-28T00:16:02.084Z,99.90
2022-09-28T00:18:29.998Z,99.90
2022-09-28T00:21:02.234Z,99.90
2022-09-28T00:23:30.147Z,99.90
2022-09-28T00:26:02.137Z,99.90
2022-09-28T00:28:32.846Z,99.90
2022-09-28T00:31:01.103Z,99.90
2022-09-28T00:33:28.964Z,99.90
2022-09-28T00:35:58.286Z,99.90
2022-09-28T00:38:30.198Z,99.90
2022-09-28T00:40:59.579Z,99.90
2022-09-28T00:43:28.057Z,99.90
2022-09-28T00:46:03.189Z,99.90
2022-09-28T00:48:35.026Z,99.90
2022-09-28T00:51:07.219Z,99.90
2022-09-28T00:53:37.783Z,99.90
2022-09-28T00:56:11.131Z,99.90
2022-09-28T00:58:46.526Z,99.90
2022-09-28T01:01:16.119Z,99.90
2022-09-28T01:03:45.425Z,99.90
2022-09-28T01:06:18.940Z,99.90
2022-09-28T01:08:50.529Z,99.90
2022-09-28T01:11:18.594Z,99.90
2022-09-28T01:13:48.980Z,99.90
2022-09-28T01:16:28.731Z,99.90
2022-09-28T01:19:02.510Z,99.90
2022-09-28T01:21:30.872Z,99.90
2022-09-28T01:24:35.410Z,99.90
2022-09-28T01:27:14.441Z,99.90
2022-09-28T01:29:48.502Z,99.90
2022-09-28T01:32:27.136Z,99.90
2022-09-28T01:34:59.664Z,99.90
2022-09-28T01:37:34.743Z,99.90
2022-09-28T01:40:05.766Z,99.90
2022-09-28T01:42:38.321Z,99.90
2022-09-28T01:45:11.454Z,99.90
2022-09-28T01:47:41.522Z,99.90
2022-09-28T01:50:13.947Z,99.90
2022-09-28T01:52:48.271Z,99.90
2022-09-28T01:55:22.012Z,99.90
2022-09-28T01:57:56.160Z,99.90
2022-09-28T02:00:26.083Z,99.90
2022-09-28T02:03:00.319Z,99.90
2022-09-28T02:05:33.378Z,99.90
2022-09-28T02:08:07.827Z,99.90
2022-09-28T02:10:41.382Z,99.90
2022-09-28T02:13:15.278Z,99.90
2022-09-28T02:15:47.428Z,99.90
2022-09-28T02:18:15.551Z,99.90
2022-09-28T02:20:48.320Z,99.90
2022-09-28T02:23:17.829Z,99.90
2022-09-28T02:25:49.808Z,99.90
2022-09-28T02:28:19.098Z,99.90
2022-09-28T02:30:47.224Z,99.90
2022-09-28T02:33:19.760Z,99.90
2022-09-28T02:35:48.070Z,99.90
2022-09-28T02:38:16.222Z,99.90
2022-09-28T02:40:49.618Z,99.90
2022-09-28T02:43:24.474Z,99.90
2022-09-28T02:46:02.622Z,99.90
2022-09-28T02:48:47.213Z,99.90
2022-09-28T02:51:28.910Z,99.90
2022-09-28T02:54:25.205Z,99.90
2022-09-28T02:57:10.821Z,99.90
2022-09-28T02:59:50.446Z,99.90
2022-09-28T03:02:26.493Z,99.90
2022-09-28T03:05:07.301Z,99.90
2022-09-28T03:07:39.434Z,99.90
2022-09-28T03:10:14.843Z,99.90
2022-09-28T03:12:44.349Z,99.90
2022-09-28T03:15:20.144Z,99.90
2022-09-28T03:17:48.127Z,99.90
2022-09-28T03:20:16.302Z,99.90
2022-09-28T03:23:00.261Z,99.90
2022-09-28T03:25:32.686Z,99.90
2022-09-28T03:28:00.581Z,99.90
2022-09-28T03:30:29.901Z,99.90
2022-09-28T03:33:02.485Z,99.90
2022-09-28T03:35:30.340Z,99.90
2022-09-28T03:37:58.673Z,99.90
2022-09-28T03:40:26.651Z,99.90
2022-09-28T03:42:54.984Z,99.90
2022-09-28T03:45:22.900Z,99.90
2022-09-28T03:47:52.459Z,99.90
2022-09-28T03:50:20.368Z,99.90
2022-09-28T03:52:48.280Z,99.90
2022-09-28T03:55:16.324Z,99.90
2022-09-28T03:57:44.641Z,99.90
2022-09-28T04:00:14.267Z,99.90
2022-09-28T04:02:42.104Z,99.90
2022-09-28T04:05:11.376Z,99.90
2022-09-28T04:07:39.219Z,99.90
2022-09-28T04:10:08.038Z,99.90
2022-09-28T04:12:35.876Z,99.90
2022-09-28T04:15:03.820Z,99.90
2022-09-28T04:17:35.483Z,99.90
2022-09-28T04:20:07.092Z,99.90
2022-09-28T04:22:37.610Z,99.90
2022-09-28T04:25:06.421Z,99.90
2022-09-28T04:27:52.029Z,99.90
2022-09-28T04:30:20.052Z,99.90
2022-09-28T04:32:48.324Z,99.90
2022-09-28T04:35:16.516Z,99.90
2022-09-28T04:37:45.702Z,99.90
2022-09-28T04:40:13.536Z,99.90
2022-09-28T04:42:41.486Z,99.90
2022-09-28T04:45:10.535Z,99.90
2022-09-28T04:47:38.398Z,99.90
2022-09-28T04:50:06.991Z,99.90
2022-09-28T04:52:37.299Z,99.90
2022-09-28T04:55:07.588Z,99.90
2022-09-28T04:57:35.878Z,99.90
2022-09-28T05:00:05.304Z,99.90
2022-09-28T05:02:33.552Z,99.90
2022-09-28T05:05:01.539Z,99.90
2022-09-28T05:07:31.126Z,99.90
2022-09-28T05:09:59.299Z,99.90
2022-09-28T05:12:28.504Z,99.90
2022-09-28T05:14:56.573Z,99.90
2022-09-28T05:17:24.795Z,99.90
2022-09-28T05:19:52.613Z,99.90
2022-09-28T05:22:20.520Z,99.90
2022-09-28T05:24:48.425Z,99.90
2022-09-28T05:27:16.402Z,99.90
2022-09-28T05:29:45.621Z,99.90
2022-09-28T05:32:13.489Z,99.90
2022-09-28T05:34:41.375Z,99.90
2022-09-28T05:37:09.268Z,99.90
2022-09-28T05:39:37.134Z,99.90
2022-09-28T05:42:05.033Z,99.90
2022-09-28T05:44:32.916Z,99.90
2022-09-28T05:47:02.147Z,99.90
2022-09-28T05:49:31.693Z,99.90
2022-09-28T05:51:59.618Z,99.90
2022-09-28T05:54:27.484Z,99.90
2022-09-28T05:56:55.353Z,99.90
2022-09-28T05:59:23.232Z,99.90
2022-09-28T06:01:51.084Z,99.90
2022-09-28T06:04:20.865Z,99.90
2022-09-28T06:06:48.835Z,99.90
2022-09-28T06:09:16.710Z,99.90
2022-09-28T06:11:44.574Z,99.90
2022-09-28T06:14:13.686Z,99.90
2022-09-28T06:16:43.862Z,99.90
2022-09-28T06:19:13.013Z,99.90
2022-09-28T06:21:42.251Z,99.90
2022-09-28T06:24:10.208Z,99.90
2022-09-28T06:26:40.221Z,99.90
2022-09-28T06:29:08.256Z,99.90
2022-09-28T06:31:36.457Z,99.90
2022-09-28T06:34:04.343Z,99.90
2022-09-28T06:36:32.326Z,99.90
2022-09-28T06:39:01.528Z,99.90
2022-09-28T06:41:29.414Z,99.90
2022-09-28T06:43:57.331Z,99.90
2022-09-28T06:46:25.470Z,99.90
2022-09-28T06:48:54.563Z,99.90
2022-09-28T06:51:22.449Z,99.90
2022-09-28T06:53:53.795Z,99.90
2022-09-28T06:56:23.010Z,99.90
2022-09-28T06:58:50.859Z,99.90
2022-09-28T07:01:18.826Z,99.90
2022-09-28T07:03:46.820Z,99.90
2022-09-28T07:06:14.683Z,99.90
2022-09-28T07:08:42.597Z,99.90
2022-09-28T07:11:11.091Z,99.90
2022-09-28T07:13:50.753Z,99.90
2022-09-28T07:16:24.121Z,99.90
2022-09-28T07:18:54.497Z,99.90
2022-09-28T07:21:29.583Z,99.90
2022-09-28T07:23:59.901Z,99.90
2022-09-28T07:26:27.824Z,99.90
2022-09-28T07:28:56.993Z,99.90
2022-09-28T07:31:26.153Z,99.90
2022-09-28T07:33:54.989Z,99.90
2022-09-28T07:36:23.406Z,99.90
2022-09-28T07:38:51.448Z,99.90
2022-09-28T07:41:26.914Z,99.90
2022-09-28T07:43:56.110Z,99.90
2022-09-28T07:46:24.010Z,99.90
2022-09-28T07:48:52.667Z,99.90
2022-09-28T07:51:21.310Z,99.90
2022-09-28T07:53:49.180Z,99.90
2022-09-28T07:56:20.346Z,99.90
2022-09-28T07:58:48.825Z,99.90
2022-09-28T08:01:19.207Z,99.90
2022-09-28T08:03:48.060Z,99.90
2022-09-28T08:06:17.635Z,99.90
2022-09-28T08:08:46.001Z,99.90
2022-09-28T08:11:15.451Z,99.90
2022-09-28T08:13:43.994Z,99.90
2022-09-28T08:16:12.476Z,99.90
2022-09-28T08:18:41.796Z,99.90
2022-09-28T08:21:29.172Z,99.90
2022-09-28T08:23:57.501Z,99.90
2022-09-28T08:26:25.713Z,99.90
2022-09-28T08:28:53.613Z,99.90
2022-09-28T08:31:21.646Z,99.90
2022-09-28T08:33:53.651Z,99.90
2022-09-28T08:36:21.718Z,99.90
2022-09-28T08:38:49.601Z,99.90
2022-09-28T08:41:24.067Z,99.90
2022-09-28T08:44:12.043Z,99.90
2022-09-28T08:46:43.732Z,99.90
2022-09-28T08:49:27.223Z,99.90
2022-09-28T08:52:00.517Z,99.90
2022-09-28T08:54:38.960Z,99.90
2022-09-28T08:57:12.374Z,99.90
2022-09-28T08:59:47.849Z,99.90
2022-09-28T09:02:20.869Z,99.90
2022-09-28T09:04:51.566Z,99.90
2022-09-28T09:07:48.878Z,99.90
2022-09-28T09:10:36.343Z,99.90
2022-09-28T09:13:12.397Z,99.90
2022-09-28T09:15:48.867Z,99.90
2022-09-28T09:18:25.353Z,99.90
2022-09-28T09:20:57.535Z,99.90
2022-09-28T09:23:37.147Z,99.90
2022-09-28T09:26:14.209Z,99.90
2022-09-28T09:29:14.686Z,99.90
2022-09-28T09:32:03.036Z,99.90
2022-09-28T09:34:53.170Z,99.90
2022-09-28T09:37:34.434Z,99.90
2022-09-28T09:40:26.143Z,99.90
2022-09-28T09:43:05.990Z,99.90
2022-09-28T09:45:47.824Z,99.90
2022-09-28T09:48:20.677Z,99.90
2022-09-28T09:50:52.111Z,99.90
2022-09-28T09:53:28.805Z,99.90
2022-09-28T09:56:02.216Z,99.90
2022-09-28T09:58:34.981Z,99.90
2022-09-28T10:01:09.018Z,99.90
2022-09-28T10:03:42.084Z,99.90
2022-09-28T10:06:14.984Z,99.90
2022-09-28T10:08:49.299Z,99.90
2022-09-28T10:11:21.619Z,99.90
2022-09-28T10:13:49.653Z,99.90
2022-09-28T10:16:19.572Z,99.90
2022-09-28T10:18:49.513Z,99.90
2022-09-28T10:21:19.470Z,99.90
2022-09-28T10:23:54.172Z,99.90
2022-09-28T10:26:26.584Z,99.90
2022-09-28T10:28:58.660Z,99.90
2022-09-28T10:31:41.728Z,99.90
2022-09-28T10:34:14.123Z,99.90
2022-09-28T10:37:12.757Z,99.90
2022-09-28T10:39:47.701Z,99.90
2022-09-28T10:42:21.346Z,99.90
2022-09-28T10:44:53.879Z,99.90
2022-09-28T10:47:24.336Z,99.90
2022-09-28T10:49:54.712Z,99.90
2022-09-28T10:52:38.140Z,99.90
2022-09-28T10:55:28.525Z,96.40
2022-09-28T10:57:56.738Z,92.60
2022-09-28T11:00:34.736Z,90.40
2022-09-28T11:03:03.311Z,89.40
2022-09-28T11:05:31.280Z,87.90
2022-09-28T11:08:01.564Z,87.60
2022-09-28T11:10:32.714Z,86.30
2022-09-28T11:13:01.693Z,87.70
2022-09-28T11:15:32.462Z,85.40
2022-09-28T11:18:19.943Z,79.90
2022-09-28T11:20:49.497Z,75.30
2022-09-28T11:23:21.354Z,72.50
2022-09-28T11:26:03.102Z,73.70
2022-09-28T11:28:33.528Z,75.60
2022-09-28T11:31:03.184Z,78.00
2022-09-28T11:33:34.148Z,80.40
2022-09-28T11:36:14.729Z,83.00
2022-09-28T11:38:49.492Z,85.70
2022-09-28T11:41:32.515Z,88.40
2022-09-28T11:44:23.914Z,90.50
2022-09-28T11:47:05.825Z,91.30
2022-09-28T11:49:39.945Z,91.60
2022-09-28T11:52:14.644Z,92.10
2022-09-28T11:54:47.381Z,92.30
2022-09-28T11:57:22.998Z,92.60
2022-09-28T11:59:59.290Z,92.90
2022-09-28T12:02:32.978Z,93.00
2022-09-28T12:05:15.817Z,93.20
2022-09-28T12:07:49.649Z,93.70
2022-09-28T12:10:21.493Z,94.00
2022-09-28T12:12:55.446Z,94.60
2022-09-28T12:15:27.881Z,95.20
2022-09-28T12:18:01.594Z,95.50
2022-09-28T12:20:33.592Z,95.80
2022-09-28T12:23:06.029Z,96.10
2022-09-28T12:25:46.188Z,96.40
2022-09-28T12:28:24.051Z,96.70
2022-09-28T12:30:53.671Z,96.90
2022-09-28T12:33:21.753Z,97.10
2022-09-28T12:36:05.291Z,97.30
2022-09-28T12:38:50.832Z,97.40
2022-09-28T12:41:40.224Z,97.70
2022-09-28T12:44:28.655Z,98.00
2022-09-28T12:47:17.352Z,98.40
2022-09-28T12:53:00.700Z,99.30
2022-09-28T12:55:56.559Z,99.70
2022-09-28T12:58:44.659Z,99.90
2022-09-28T13:01:32.689Z,99.90
2022-09-28T13:04:13.977Z,99.90
2022-09-28T13:06:52.684Z,99.90
2022-09-28T13:09:23.898Z,99.90
2022-09-28T13:12:06.024Z,99.90
2022-09-28T13:15:01.515Z,99.90
2022-09-28T13:17:44.988Z,99.90
2022-09-28T13:20:38.798Z,99.90
2022-09-28T13:23:15.543Z,99.90
2022-09-28T13:25:50.664Z,99.90
2022-09-28T13:28:26.188Z,99.90
2022-09-28T13:33:36.764Z,99.90
2022-09-28T13:36:05.695Z,99.90
2022-09-28T13:38:55.064Z,99.90
2022-09-28T13:41:33.810Z,99.90
2022-09-28T13:44:44.558Z,99.90
2022-09-28T13:47:26.414Z,99.90
2022-09-28T13:50:11.570Z,99.90
2022-09-28T13:52:48.447Z,99.90
2022-09-28T13:55:27.337Z,99.90
2022-09-28T13:57:58.939Z,99.90
2022-09-28T14:00:31.406Z,99.90
2022-09-28T14:03:12.172Z,99.90
2022-09-28T14:05:53.782Z,99.90
2022-09-28T14:08:31.348Z,99.90
2022-09-28T14:11:34.291Z,99.90
2022-09-28T14:14:24.284Z,99.90
2022-09-28T14:16:59.836Z,99.90
2022-09-28T14:19:32.405Z,99.90
2022-09-28T14:22:09.173Z,99.90
2022-09-28T14:25:02.430Z,99.90
2022-09-28T14:27:51.324Z,99.90
2022-09-28T14:30:26.400Z,99.90
2022-09-28T14:32:57.604Z,99.90
2022-09-28T14:35:31.277Z,99.90
2022-09-28T14:38:21.952Z,99.90
2022-09-28T14:41:10.867Z,99.90
2022-09-28T14:43:59.896Z,99.90
2022-09-28T14:46:34.938Z,99.90
2022-09-28T14:49:04.649Z,99.90
2022-09-28T14:52:06.347Z,99.90
2022-09-28T14:54:49.928Z,99.90
2022-09-28T14:57:20.850Z,99.90
2022-09-28T14:59:48.836Z,99.90
2022-09-28T15:02:32.172Z,99.90
2022-09-28T15:05:10.422Z,99.90
2022-09-28T15:07:48.010Z,99.90
2022-09-28T15:10:27.487Z,99.90
2022-09-28T15:12:57.112Z,99.90
2022-09-28T15:15:38.161Z,99.90
2022-09-28T15:18:22.117Z,99.90
2022-09-28T15:20:50.894Z,99.90
2022-09-28T15:23:27.614Z,99.90
2022-09-28T15:25:56.528Z,99.90
2022-09-28T15:28:25.540Z,99.90
2022-09-28T15:31:00.682Z,99.90
2022-09-28T15:33:49.458Z,99.90
2022-09-28T15:36:21.154Z,99.90
2022-09-28T15:38:56.393Z,99.90
2022-09-28T15:41:25.801Z,99.90
2022-09-28T15:44:27.092Z,99.90
2022-09-28T15:47:06.908Z,99.90
2022-09-28T15:49:41.153Z,99.90
2022-09-28T15:52:26.118Z,99.90
2022-09-28T15:54:55.021Z,99.90
2022-09-28T15:57:36.910Z,99.90
2022-09-28T16:00:08.101Z,99.90
2022-09-28T16:02:36.650Z,99.90
2022-09-28T16:05:39.171Z,99.90
2022-09-28T16:08:14.885Z,99.90
2022-09-28T16:10:56.880Z,99.90
2022-09-28T16:13:24.964Z,99.90
2022-09-28T16:15:59.639Z,99.90
2022-09-28T16:18:29.101Z,99.90
2022-09-28T16:21:21.113Z,99.90
2022-09-28T16:23:52.742Z,99.90
2022-09-28T16:26:32.106Z,99.90
2022-09-28T16:29:02.016Z,99.90
2022-09-28T16:31:34.606Z,99.90
2022-09-28T16:34:11.862Z,99.90
2022-09-28T16:36:46.285Z,99.90
2022-09-28T16:39:16.270Z,99.90
2022-09-28T16:41:47.932Z,99.90
2022-09-28T16:44:23.324Z,99.90
2022-09-28T16:46:53.899Z,99.90
2022-09-28T16:49:22.293Z,99.90
2022-09-28T16:51:51.497Z,99.90
2022-09-28T16:54:39.331Z,99.90
2022-09-28T16:57:10.490Z,99.90
2022-09-28T16:59:38.804Z,99.90
2022-09-28T17:02:45.309Z,99.90
2022-09-28T17:05:11.093Z,99.90
2022-09-28T17:07:41.045Z,99.90
2022-09-28T17:10:18.310Z,99.90
2022-09-28T17:12:46.774Z,99.90
2022-09-28T17:15:15.650Z,99.90
2022-09-28T17:17:43.588Z,99.90
2022-09-28T17:20:21.351Z,99.90
2022-09-28T17:22:50.780Z,99.90
2022-09-28T17:25:19.076Z,99.90
2022-09-28T17:27:48.834Z,99.90
2022-09-28T17:30:17.613Z,99.90
2022-09-28T17:32:47.027Z,99.90
2022-09-28T17:35:25.276Z,99.90
2022-09-28T17:37:54.940Z,99.90
2022-09-28T17:40:24.753Z,99.90
2022-09-28T17:42:55.098Z,99.90
2022-09-28T17:45:28.067Z,99.90
2022-09-28T17:47:57.241Z,99.90
2022-09-28T17:50:27.826Z,99.90
2022-09-28T17:52:59.775Z,99.90
2022-09-28T17:55:31.645Z,99.90
2022-09-28T17:58:00.941Z,99.90
2022-09-28T18:00:29.492Z,99.90
2022-09-28T18:02:58.791Z,99.90
2022-09-28T18:05:28.260Z,99.90
2022-09-28T18:07:58.739Z,99.90
2022-09-28T18:10:27.481Z,99.90
2022-09-28T18:12:55.319Z,99.90
2022-09-28T18:15:23.268Z,99.90
2022-09-28T18:17:51.156Z,99.90
2022-09-28T18:20:19.095Z,99.90
2022-09-28T18:23:08.846Z,99.90
2022-09-28T18:25:53.865Z,99.90
2022-09-28T18:28:22.962Z,99.90
2022-09-28T18:30:52.380Z,99.90
2022-09-28T18:33:20.398Z,99.90
2022-09-28T18:35:52.925Z,99.90
2022-09-28T18:38:21.241Z,99.90
2022-09-28T18:40:50.485Z,99.90
2022-09-28T18:43:18.520Z,99.90
2022-09-28T18:45:47.066Z,99.90
2022-09-28T18:48:14.970Z,99.90
2022-09-28T18:50:43.309Z,99.90
2022-09-28T18:53:13.926Z,99.90
2022-09-28T18:55:43.306Z,99.90
2022-09-28T18:58:13.078Z,99.90
2022-09-28T19:00:42.956Z,99.90
2022-09-28T19:03:14.371Z,99.90
2022-09-28T19:05:43.464Z,99.90
2022-09-28T19:08:11.714Z,99.90
2022-09-28T19:10:39.625Z,99.90
2022-09-28T19:13:07.500Z,99.90
2022-09-28T19:15:36.707Z,99.90
2022-09-28T19:18:04.949Z,99.90
2022-09-28T19:20:33.886Z,99.90
2022-09-28T19:23:02.096Z,99.90
2022-09-28T19:25:30.124Z,99.90
2022-09-28T19:27:57.994Z,99.90
2022-09-28T19:30:25.963Z,99.90
2022-09-28T19:32:55.331Z,99.90
2022-09-28T19:35:23.202Z,99.90
2022-09-28T19:37:51.430Z,99.90
2022-09-28T19:40:19.417Z,99.90
2022-09-28T19:42:47.351Z,99.90
2022-09-28T19:45:15.273Z,99.90
2022-09-28T19:47:43.205Z,99.90
2022-09-28T19:50:12.545Z,99.90
2022-09-28T19:52:40.470Z,99.90
2022-09-28T19:55:09.252Z,99.90
2022-09-28T19:57:37.123Z,99.90
2022-09-28T20:00:05.748Z,99.90
2022-09-28T20:02:34.393Z,99.90
2022-09-28T20:05:02.407Z,99.90
2022-09-28T20:07:33.351Z,99.90
2022-09-28T20:10:01.230Z,99.90
2022-09-28T20:12:29.115Z,99.90
2022-09-28T20:14:56.997Z,99.90
2022-09-28T20:17:24.878Z,99.90
2022-09-28T20:19:53.073Z,99.90
2022-09-28T20:22:21.259Z,99.90
2022-09-28T20:24:50.651Z,99.90
2022-09-28T20:27:20.346Z,99.90
2022-09-28T20:29:49.898Z,99.90
2022-09-28T20:32:17.827Z,99.90
2022-09-28T20:34:45.751Z,99.90
2022-09-28T20:37:14.010Z,99.90
2022-09-28T20:39:44.935Z,99.90
2022-09-28T20:42:15.506Z,99.90
2022-09-28T20:44:43.842Z,99.90
2022-09-28T20:47:11.761Z,99.90
2022-09-28T20:49:39.623Z,99.90
2022-09-28T20:52:07.524Z,99.90
2022-09-28T20:54:35.416Z,99.90
2022-09-28T20:57:03.345Z,99.90
2022-09-28T20:59:32.694Z,99.90
2022-09-28T21:02:00.636Z,99.90
2022-09-28T21:04:28.631Z,99.90
2022-09-28T21:06:56.686Z,99.90
2022-09-28T21:09:24.764Z,99.90
2022-09-28T21:11:52.640Z,99.90
2022-09-28T21:14:20.767Z,99.90
2022-09-28T21:16:50.674Z,99.90
2022-09-28T21:19:18.820Z,99.90
2022-09-28T21:21:46.667Z,99.90
2022-09-28T21:24:14.644Z,99.90
2022-09-28T21:26:42.599Z,99.90
2022-09-28T21:29:14.083Z,99.90
2022-09-28T21:31:45.554Z,99.90
2022-09-28T21:34:19.270Z,99.90
2022-09-28T21:36:47.964Z,99.90
2022-09-28T21:39:16.096Z,99.90
2022-09-28T21:41:44.214Z,99.90
2022-09-28T21:44:12.589Z,99.90
2022-09-28T21:46:40.890Z,99.90
2022-09-28T21:49:12.599Z,99.90
2022-09-28T21:51:41.836Z,99.90
2022-09-28T21:54:09.894Z,99.90
2022-09-28T21:56:37.810Z,99.90
2022-09-28T21:59:05.797Z,99.90
2022-09-28T22:01:33.787Z,99.90
2022-09-28T22:04:02.063Z,99.90
2022-09-28T22:06:30.005Z,99.90
2022-09-28T22:08:59.473Z,99.90
2022-09-28T22:11:29.275Z,99.90
2022-09-28T22:13:58.721Z,99.90
2022-09-28T22:16:28.773Z,99.90
2022-09-28T22:18:57.416Z,99.90
2022-09-28T22:21:27.005Z,99.90
2022-09-28T22:23:55.194Z,99.90
2022-09-28T22:26:25.843Z,99.90
2022-09-28T22:28:55.269Z,99.90
2022-09-28T22:31:25.698Z,99.90
2022-09-28T22:33:53.744Z,99.90
2022-09-28T22:36:21.678Z,99.90
2022-09-28T22:38:50.625Z,99.90
2022-09-28T22:41:20.799Z,99.90
2022-09-28T22:43:51.249Z,99.90
2022-09-28T22:46:22.197Z,99.90
2022-09-28T22:48:52.537Z,99.90
2022-09-28T22:51:21.395Z,99.90
2022-09-28T22:53:49.623Z,99.90
2022-09-28T22:56:19.031Z,99.90
2022-09-28T22:58:48.888Z,99.90
2022-09-28T23:01:19.152Z,99.90
2022-09-28T23:03:47.476Z,99.90
2022-09-28T23:06:17.500Z,99.90
2022-09-28T23:08:47.232Z,99.90
2022-09-28T23:11:16.006Z,99.90
2022-09-28T23:13:44.422Z,99.90
2022-09-28T23:16:14.837Z,99.90
2022-09-28T23:18:43.615Z,99.90
2022-09-28T23:21:15.179Z,99.90
2022-09-28T23:23:43.164Z,99.90
2022-09-28T23:26:12.616Z,99.90
2022-09-28T23:28:40.847Z,99.90
2022-09-28T23:31:10.441Z,99.90
2022-09-28T23:33:39.683Z,99.90
2022-09-28T23:36:08.670Z,99.90
2022-09-28T23:38:36.787Z,99.90
2022-09-28T23:41:04.698Z,99.90
2022-09-28T23:43:32.910Z,99.90
2022-09-28T23:46:01.095Z,99.90
2022-09-28T23:48:29.015Z,99.90
2022-09-28T23:50:58.447Z,99.90
2022-09-28T23:53:26.685Z,99.90
2022-09-28T23:55:54.952Z,99.90
2022-09-28T23:58:22.821Z,99.90
